createdAt,value
2022-09-23T00:00:06.457Z,101254.94
2022-09-23T00:00:28.153Z,101264.78
2022-09-23T00:00:49.749Z,101258.50
2022-09-23T00:01:11.670Z,101258.66
2022-09-23T00:01:34.688Z,101255.97
2022-09-23T00:01:56.913Z,101251.75
2022-09-23T00:02:18.564Z,101246.25
2022-09-23T00:02:40.774Z,101256.97
2022-09-23T00:03:03.485Z,101249.94
2022-09-23T00:03:25.105Z,101256.97
2022-09-23T00:03:47.242Z,101252.69
2022-09-23T00:04:10.273Z,101249.00
2022-09-23T00:04:32.785Z,101257.03
2022-09-23T00:04:54.317Z,101256.16
2022-09-23T00:05:16.035Z,101248.06
2022-09-23T00:05:38.235Z,101250.66
2022-09-23T00:06:02.225Z,101234.88
2022-09-23T00:06:24.392Z,101255.88
2022-09-23T00:06:46.003Z,101251.31
2022-09-23T00:07:07.754Z,101253.94
2022-09-23T00:07:30.325Z,101247.78
2022-09-23T00:07:51.945Z,101249.50
2022-09-23T00:08:13.557Z,101247.94
2022-09-23T00:08:35.161Z,101246.91
2022-09-23T00:08:56.773Z,101254.00
2022-09-23T00:09:19.345Z,101252.19
2022-09-23T00:09:40.905Z,101246.91
2022-09-23T00:10:02.629Z,101248.69
2022-09-23T00:10:25.737Z,101251.31
2022-09-23T00:10:48.290Z,101251.38
2022-09-23T00:11:12.517Z,101255.16
2022-09-23T00:11:34.063Z,101244.44
2022-09-23T00:11:55.669Z,101248.13
2022-09-23T00:12:18.345Z,101253.47
2022-09-23T00:12:39.983Z,101242.91
2022-09-23T00:13:01.609Z,101251.81
2022-09-23T00:13:23.630Z,101242.84
2022-09-23T00:13:47.405Z,101249.19
2022-09-23T00:14:10.842Z,101246.63
2022-09-23T00:14:32.681Z,101252.09
2022-09-23T00:14:54.352Z,101253.84
2022-09-23T00:15:16.989Z,101251.97
2022-09-23T00:15:39.414Z,101241.31
2022-09-23T00:16:04.631Z,101248.44
2022-09-23T00:16:29.189Z,101252.91
2022-09-23T00:16:50.905Z,101245.00
2022-09-23T00:17:12.611Z,101234.38
2022-09-23T00:17:35.237Z,101243.06
2022-09-23T00:17:57.192Z,101249.19
2022-09-23T00:18:20.485Z,101249.53
2022-09-23T00:18:42.452Z,101247.69
2022-09-23T00:19:05.667Z,101244.28
2022-09-23T00:19:29.933Z,101243.34
2022-09-23T00:19:51.729Z,101232.03
2022-09-23T00:20:14.163Z,101246.19
2022-09-23T00:20:36.213Z,101236.53
2022-09-23T00:20:58.809Z,101242.69
2022-09-23T00:21:21.938Z,101244.66
2022-09-23T00:21:43.632Z,101239.38
2022-09-23T00:22:06.164Z,101234.13
2022-09-23T00:22:27.794Z,101235.81
2022-09-23T00:22:49.504Z,101238.44
2022-09-23T00:23:11.320Z,101235.81
2022-09-23T00:23:35.081Z,101235.00
2022-09-23T00:23:56.882Z,101234.13
2022-09-23T00:24:19.625Z,101227.00
2022-09-23T00:24:42.229Z,101239.38
2022-09-23T00:25:04.397Z,101239.31
2022-09-23T00:25:29.561Z,101231.50
2022-09-23T00:25:56.176Z,101226.13
2022-09-23T00:26:20.405Z,101232.38
2022-09-23T00:26:43.188Z,101224.28
2022-09-23T00:27:05.288Z,101238.59
2022-09-23T00:27:26.862Z,101235.97
2022-09-23T00:27:48.516Z,101234.22
2022-09-23T00:28:11.010Z,101236.78
2022-09-23T00:28:33.096Z,101230.69
2022-09-23T00:28:55.176Z,101233.25
2022-09-23T00:29:16.891Z,101237.66
2022-09-23T00:29:39.488Z,101232.38
2022-09-23T00:30:01.337Z,101236.13
2022-09-23T00:30:23.622Z,101237.19
2022-09-23T00:30:45.581Z,101231.00
2022-09-23T00:31:09.020Z,101231.06
2022-09-23T00:31:31.756Z,101237.28
2022-09-23T00:31:53.403Z,101219.69
2022-09-23T00:32:14.971Z,101233.56
2022-09-23T00:32:37.777Z,101231.84
2022-09-23T00:33:00.355Z,101229.97
2022-09-23T00:33:22.044Z,101233.78
2022-09-23T00:33:44.107Z,101230.41
2022-09-23T00:34:06.688Z,101230.41
2022-09-23T00:34:29.704Z,101205.84
2022-09-23T00:34:52.392Z,101217.16
2022-09-23T00:36:12.519Z,101229.38
2022-09-23T00:36:34.402Z,101230.34
2022-09-23T00:36:56.823Z,101227.72
2022-09-23T00:37:19.095Z,101220.75
2022-09-23T00:37:41.736Z,101229.53
2022-09-23T00:38:03.317Z,101231.47
2022-09-23T00:38:24.939Z,101221.19
2022-09-23T00:38:46.830Z,101227.06
2022-09-23T00:39:09.750Z,101227.00
2022-09-23T00:39:33.024Z,101229.66
2022-09-23T00:39:55.502Z,101219.94
2022-09-23T00:40:17.279Z,101228.66
2022-09-23T00:40:44.037Z,101224.22
2022-09-23T00:41:06.383Z,101226.91
2022-09-23T00:41:28.172Z,101228.81
2022-09-23T00:41:50.106Z,101230.44
2022-09-23T00:42:16.263Z,101228.59
2022-09-23T00:42:37.839Z,101224.97
2022-09-23T00:42:59.656Z,101224.97
2022-09-23T00:43:38.261Z,101225.09
2022-09-23T00:44:02.206Z,101232.25
2022-09-23T00:44:43.416Z,101222.34
2022-09-23T00:45:07.730Z,101220.63
2022-09-23T00:45:31.012Z,101232.13
2022-09-23T00:45:52.890Z,101233.94
2022-09-23T00:46:18.580Z,101225.09
2022-09-23T00:46:43.531Z,101225.75
2022-09-23T00:47:06.192Z,101223.28
2022-09-23T00:47:34.242Z,101214.38
2022-09-23T00:48:01.382Z,101224.00
2022-09-23T00:48:23.889Z,101229.38
2022-09-23T00:48:46.468Z,101224.97
2022-09-23T00:49:12.705Z,101231.13
2022-09-23T00:49:35.648Z,101225.97
2022-09-23T00:50:06.542Z,101225.97
2022-09-23T00:50:30.885Z,101228.72
2022-09-23T00:50:54.597Z,101227.22
2022-09-23T00:51:21.086Z,101220.16
2022-09-23T00:51:48.967Z,101220.97
2022-09-23T00:52:15.284Z,101218.41
2022-09-23T00:52:37.578Z,101218.34
2022-09-23T00:53:03.477Z,101221.91
2022-09-23T00:53:26.701Z,101220.88
2022-09-23T00:53:51.200Z,101220.09
2022-09-23T00:54:13.099Z,101223.56
2022-09-23T00:54:35.213Z,101220.09
2022-09-23T00:55:00.433Z,101221.03
2022-09-23T00:55:26.165Z,101224.53
2022-09-23T00:55:50.236Z,101223.66
2022-09-23T00:56:13.557Z,101225.31
2022-09-23T00:56:37.477Z,101223.50
2022-09-23T00:57:00.219Z,101222.63
2022-09-23T00:57:23.669Z,101215.53
2022-09-23T00:57:47.277Z,101221.69
2022-09-23T00:58:12.880Z,101225.31
2022-09-23T00:58:37.247Z,101222.50
2022-09-23T00:59:01.003Z,101223.34
2022-09-23T00:59:24.392Z,101221.69
2022-09-23T00:59:47.153Z,101222.63
2022-09-23T01:00:10.685Z,101221.63
2022-09-23T01:00:33.683Z,101222.50
2022-09-23T01:00:55.483Z,101222.50
2022-09-23T01:01:18.574Z,101224.22
2022-09-23T01:01:40.755Z,101219.84
2022-09-23T01:02:04.681Z,101220.63
2022-09-23T01:02:28.121Z,101219.75
2022-09-23T01:02:50.144Z,101210.94
2022-09-23T01:03:13.903Z,101216.84
2022-09-23T01:03:35.824Z,101222.22
2022-09-23T01:03:58.424Z,101208.91
2022-09-23T01:04:20.677Z,101212.41
2022-09-23T01:04:44.597Z,101220.41
2022-09-23T01:05:07.917Z,101215.97
2022-09-23T01:05:29.862Z,101215.91
2022-09-23T01:05:52.251Z,101226.69
2022-09-23T01:06:15.156Z,101207.28
2022-09-23T01:06:36.722Z,101222.22
2022-09-23T01:06:58.411Z,101219.53
2022-09-23T01:07:20.491Z,101216.06
2022-09-23T01:07:43.667Z,101217.78
2022-09-23T01:08:08.185Z,101202.06
2022-09-23T01:08:31.113Z,101216.94
2022-09-23T01:08:53.093Z,101216.84
2022-09-23T01:09:14.825Z,101210.78
2022-09-23T01:09:37.843Z,101212.53
2022-09-23T01:10:00.907Z,101212.53
2022-09-23T01:10:23.924Z,101215.09
2022-09-23T01:10:56.558Z,101211.59
2022-09-23T01:11:34.992Z,101211.59
2022-09-23T01:12:03.538Z,101208.81
2022-09-23T01:12:42.167Z,101211.50
2022-09-23T01:13:15.881Z,101213.25
2022-09-23T01:13:47.532Z,101208.81
2022-09-23T01:14:32.048Z,101215.09
2022-09-23T01:15:03.678Z,101207.16
2022-09-23T01:15:32.418Z,101211.50
2022-09-23T01:16:04.931Z,101207.06
2022-09-23T01:16:34.564Z,101206.13
2022-09-23T01:17:03.939Z,101205.41
2022-09-23T01:17:33.501Z,101208.09
2022-09-23T01:18:07.324Z,101207.38
2022-09-23T01:18:39.140Z,101212.78
2022-09-23T01:19:10.285Z,101204.91
2022-09-23T01:20:01.086Z,101206.50
2022-09-23T01:20:41.912Z,101208.16
2022-09-23T01:21:18.316Z,101204.69
2022-09-23T01:21:53.501Z,101214.53
2022-09-23T01:22:29.319Z,101213.94
2022-09-23T01:23:03.705Z,101205.69
2022-09-23T01:24:02.284Z,101204.75
2022-09-23T01:24:45.918Z,101204.09
2022-09-23T01:25:27.213Z,101204.16
2022-09-23T01:26:07.981Z,101208.56
2022-09-23T01:26:49.547Z,101206.94
2022-09-23T01:27:18.027Z,101198.28
2022-09-23T01:27:59.922Z,101209.66
2022-09-23T01:28:42.494Z,101193.00
2022-09-23T01:29:34.225Z,101203.44
2022-09-23T01:30:08.064Z,101209.59
2022-09-23T01:30:51.249Z,101203.38
2022-09-23T01:31:19.742Z,101203.66
2022-09-23T01:31:48.882Z,101200.03
2022-09-23T01:32:17.948Z,101199.09
2022-09-23T01:32:58.435Z,101200.03
2022-09-23T01:33:26.199Z,101204.72
2022-09-23T01:33:56.417Z,101200.25
2022-09-23T01:34:26.437Z,101200.31
2022-09-23T01:34:53.493Z,101195.97
2022-09-23T01:35:24.976Z,101200.50
2022-09-23T01:36:03.739Z,101198.56
2022-09-23T01:36:32.416Z,101210.19
2022-09-23T01:36:58.929Z,101202.06
2022-09-23T01:37:28.578Z,101201.34
2022-09-23T01:37:57.675Z,101196.81
2022-09-23T01:38:26.812Z,101200.56
2022-09-23T01:38:59.017Z,101198.72
2022-09-23T01:39:29.685Z,101195.31
2022-09-23T01:40:03.378Z,101197.78
2022-09-23T01:40:33.959Z,101196.91
2022-09-23T01:41:03.344Z,101192.47
2022-09-23T01:41:49.171Z,101196.97
2022-09-23T01:42:17.573Z,101193.47
2022-09-23T01:42:42.921Z,101195.31
2022-09-23T01:43:09.906Z,101178.78
2022-09-23T01:43:41.624Z,101199.69
2022-09-23T01:44:09.152Z,101201.59
2022-09-23T01:44:39.109Z,101195.44
2022-09-23T01:45:07.064Z,101200.72
2022-09-23T01:45:34.018Z,101200.72
2022-09-23T01:46:00.304Z,101199.84
2022-09-23T01:46:27.880Z,101197.13
2022-09-23T01:46:54.785Z,101200.78
2022-09-23T01:47:21.690Z,101182.41
2022-09-23T01:47:51.625Z,101198.09
2022-09-23T01:48:19.132Z,101200.72
2022-09-23T01:48:47.518Z,101197.13
2022-09-23T01:49:16.512Z,101192.63
2022-09-23T01:49:46.131Z,101193.34
2022-09-23T01:50:26.789Z,101189.97
2022-09-23T01:50:58.578Z,101194.44
2022-09-23T01:51:26.689Z,101191.63
2022-09-23T01:51:53.935Z,101188.94
2022-09-23T01:52:22.609Z,101202.31
2022-09-23T01:52:48.118Z,101200.56
2022-09-23T01:53:14.851Z,101189.88
2022-09-23T01:53:43.420Z,101196.25
2022-09-23T01:54:11.469Z,101193.47
2022-09-23T01:54:39.217Z,101191.75
2022-09-23T01:55:08.562Z,101194.50
2022-09-23T01:55:34.056Z,101191.88
2022-09-23T01:56:00.283Z,101187.47
2022-09-23T01:56:26.534Z,101185.66
2022-09-23T01:56:54.128Z,101189.97
2022-09-23T01:57:22.615Z,101188.13
2022-09-23T01:57:50.160Z,101195.22
2022-09-23T01:58:17.088Z,101195.22
2022-09-23T01:58:45.485Z,101189.75
2022-09-23T01:59:13.894Z,101194.22
2022-09-23T01:59:40.071Z,101191.63
2022-09-23T02:00:06.693Z,101179.44
2022-09-23T02:00:38.009Z,101193.34
2022-09-23T02:01:04.168Z,101196.81
2022-09-23T02:01:37.576Z,101185.31
2022-09-23T02:02:04.094Z,101196.81
2022-09-23T02:02:33.424Z,101191.41
2022-09-23T02:03:00.344Z,101196.69
2022-09-23T02:03:27.328Z,101180.91
2022-09-23T02:03:55.584Z,101194.03
2022-09-23T02:04:24.000Z,101182.75
2022-09-23T02:04:50.353Z,101193.16
2022-09-23T02:05:18.279Z,101195.09
2022-09-23T02:05:45.748Z,101193.22
2022-09-23T02:06:12.466Z,101198.56
2022-09-23T02:06:39.711Z,101201.50
2022-09-23T02:07:06.152Z,101197.19
2022-09-23T02:07:34.069Z,101197.22
2022-09-23T02:07:59.812Z,101186.16
2022-09-23T02:08:25.618Z,101192.19
2022-09-23T02:08:54.500Z,101196.56
2022-09-23T02:09:22.221Z,101194.03
2022-09-23T02:09:48.977Z,101194.09
2022-09-23T02:10:14.030Z,101186.34
2022-09-23T02:10:42.040Z,101196.88
2022-09-23T02:11:08.176Z,101194.03
2022-09-23T02:11:36.289Z,101195.78
2022-09-23T02:12:04.753Z,101196.72
2022-09-23T02:12:29.953Z,101199.44
2022-09-23T02:12:54.813Z,101188.75
2022-09-23T02:13:20.933Z,101197.53
2022-09-23T02:13:50.820Z,101196.66
2022-09-23T02:14:16.757Z,101194.75
2022-09-23T02:14:44.023Z,101186.88
2022-09-23T02:15:12.237Z,101183.13
2022-09-23T02:15:38.066Z,101174.63
2022-09-23T02:16:08.470Z,101182.41
2022-09-23T02:16:34.233Z,101183.13
2022-09-23T02:17:02.685Z,101184.22
2022-09-23T02:17:28.984Z,101190.44
2022-09-23T02:17:52.896Z,101177.25
2022-09-23T02:18:19.337Z,101185.34
2022-09-23T02:18:46.065Z,101186.16
2022-09-23T02:19:14.313Z,101180.00
2022-09-23T02:19:41.753Z,101184.69
2022-09-23T02:20:05.856Z,101185.53
2022-09-23T02:20:30.921Z,101188.28
2022-09-23T02:21:00.296Z,101178.81
2022-09-23T02:21:26.993Z,101186.47
2022-09-23T02:21:52.384Z,101180.25
2022-09-23T02:22:20.505Z,101180.41
2022-09-23T02:22:51.965Z,101187.41
2022-09-23T02:23:19.158Z,101190.22
2022-09-23T02:23:44.937Z,101181.34
2022-09-23T02:24:12.258Z,101191.09
2022-09-23T02:24:37.520Z,101180.25
2022-09-23T02:24:59.208Z,101189.16
2022-09-23T02:25:26.123Z,101174.25
2022-09-23T02:25:55.375Z,101180.50
2022-09-23T02:26:20.932Z,101183.94
2022-09-23T02:26:50.100Z,101177.78
2022-09-23T02:27:19.955Z,101178.66
2022-09-23T02:27:48.677Z,101181.38
2022-09-23T02:28:16.247Z,101173.31
2022-09-23T02:28:49.142Z,101178.66
2022-09-23T02:29:18.686Z,101187.63
2022-09-23T02:29:49.271Z,101185.03
2022-09-23T02:30:15.136Z,101177.78
2022-09-23T02:30:45.056Z,101175.16
2022-09-23T02:31:13.096Z,101156.28
2022-09-23T02:31:40.452Z,101180.66
2022-09-23T02:32:14.222Z,101175.44
2022-09-23T02:32:47.071Z,101179.91
2022-09-23T02:33:18.414Z,101172.69
2022-09-23T02:33:48.635Z,101174.44
2022-09-23T02:34:18.926Z,101178.91
2022-09-23T02:34:46.313Z,101180.72
2022-09-23T02:35:19.135Z,101172.63
2022-09-23T02:35:49.110Z,101174.56
2022-09-23T02:36:15.256Z,101176.34
2022-09-23T02:36:44.772Z,101172.88
2022-09-23T02:37:17.016Z,101172.69
2022-09-23T02:37:43.813Z,101180.66
2022-09-23T02:38:18.148Z,101180.78
2022-09-23T02:38:46.174Z,101177.16
2022-09-23T02:39:11.248Z,101174.66
2022-09-23T02:39:42.137Z,101178.09
2022-09-23T02:40:15.498Z,101176.31
2022-09-23T02:40:41.796Z,101162.25
2022-09-23T02:41:09.760Z,101171.13
2022-09-23T02:41:39.731Z,101169.31
2022-09-23T02:42:07.545Z,101172.81
2022-09-23T02:42:39.245Z,101162.88
2022-09-23T02:43:08.320Z,101167.41
2022-09-23T02:43:36.077Z,101169.09
2022-09-23T02:44:02.261Z,101169.09
2022-09-23T02:44:24.245Z,101163.78
2022-09-23T02:44:46.863Z,101159.38
2022-09-23T02:45:09.009Z,101165.59
2022-09-23T02:45:31.048Z,101160.41
2022-09-23T02:45:52.719Z,101157.69
2022-09-23T02:46:17.505Z,101150.78
2022-09-23T02:46:39.492Z,101163.09
2022-09-23T02:47:01.183Z,101158.63
2022-09-23T02:47:28.002Z,101164.72
2022-09-23T02:47:53.262Z,101153.25
2022-09-23T02:48:21.159Z,101159.50
2022-09-23T02:48:47.060Z,101156.75
2022-09-23T02:49:11.510Z,101164.59
2022-09-23T02:49:35.121Z,101162.91
2022-09-23T02:49:56.824Z,101162.16
2022-09-23T02:50:19.915Z,101154.28
2022-09-23T02:50:41.541Z,101156.91
2022-09-23T02:51:04.224Z,101158.69
2022-09-23T02:51:25.864Z,101164.97
2022-09-23T02:51:47.824Z,101151.66
2022-09-23T02:52:13.538Z,101155.28
2022-09-23T02:52:36.590Z,101159.84
2022-09-23T02:52:59.357Z,101159.91
2022-09-23T02:53:22.977Z,101162.44
2022-09-23T02:53:46.414Z,101164.31
2022-09-23T02:54:12.856Z,101149.13
2022-09-23T02:54:35.340Z,101150.00
2022-09-23T02:54:57.444Z,101156.91
2022-09-23T02:55:24.626Z,101159.50
2022-09-23T02:55:46.225Z,101162.97
2022-09-23T02:56:16.055Z,101152.53
2022-09-23T02:56:37.833Z,101163.84
2022-09-23T02:57:02.623Z,101153.34
2022-09-23T02:57:25.292Z,101158.69
2022-09-23T02:57:48.186Z,101156.75
2022-09-23T02:58:13.296Z,101149.72
2022-09-23T02:58:35.897Z,101154.13
2022-09-23T02:58:57.922Z,101148.78
2022-09-23T02:59:21.606Z,101154.13
2022-09-23T02:59:43.653Z,101145.44
2022-09-23T03:00:08.823Z,101156.03
2022-09-23T03:00:47.973Z,101147.13
2022-09-23T03:01:18.899Z,101151.56
2022-09-23T03:01:52.309Z,101146.25
2022-09-23T03:02:31.959Z,101150.88
2022-09-23T03:03:12.461Z,101142.72
2022-09-23T03:03:43.485Z,101141.84
2022-09-23T03:04:16.556Z,101147.19
2022-09-23T03:04:47.325Z,101145.38
2022-09-23T03:05:19.208Z,101139.31
2022-09-23T03:05:50.022Z,101139.38
2022-09-23T03:06:20.825Z,101133.88
2022-09-23T03:06:53.138Z,101141.13
2022-09-23T03:07:20.232Z,101146.38
2022-09-23T03:07:49.360Z,101137.72
2022-09-23T03:08:29.122Z,101134.88
2022-09-23T03:08:58.621Z,101136.63
2022-09-23T03:09:24.897Z,101136.91
2022-09-23T03:09:55.031Z,101130.63
2022-09-23T03:10:22.777Z,101137.34
2022-09-23T03:10:57.043Z,101133.81
2022-09-23T03:11:21.540Z,101140.69
2022-09-23T03:11:50.434Z,101140.75
2022-09-23T03:12:21.471Z,101145.25
2022-09-23T03:12:52.908Z,101131.50
2022-09-23T03:13:26.109Z,101135.66
2022-09-23T03:14:16.783Z,101129.69
2022-09-23T03:14:44.392Z,101138.34
2022-09-23T03:15:19.012Z,101134.94
2022-09-23T03:15:51.719Z,101134.88
2022-09-23T03:16:27.682Z,101141.97
2022-09-23T03:16:56.136Z,101140.25
2022-09-23T03:17:25.758Z,101137.63
2022-09-23T03:17:52.701Z,101134.88
2022-09-23T03:18:20.365Z,101138.34
2022-09-23T03:18:48.184Z,101127.00
2022-09-23T03:19:21.318Z,101147.66
2022-09-23T03:19:48.574Z,101139.78
2022-09-23T03:20:15.264Z,101141.72
2022-09-23T03:20:43.383Z,101140.91
2022-09-23T03:21:08.483Z,101149.84
2022-09-23T03:21:36.103Z,101138.38
2022-09-23T03:22:02.308Z,101136.44
2022-09-23T03:22:29.844Z,101140.03
2022-09-23T03:22:55.716Z,101135.81
2022-09-23T03:23:23.831Z,101143.72
2022-09-23T03:23:47.463Z,101141.88
2022-09-23T03:24:14.255Z,101141.09
2022-09-23T03:24:38.107Z,101136.69
2022-09-23T03:25:07.041Z,101143.06
2022-09-23T03:25:33.192Z,101135.22
2022-09-23T03:25:59.947Z,101140.47
2022-09-23T03:26:28.461Z,101141.31
2022-09-23T03:26:51.928Z,101141.31
2022-09-23T03:27:17.708Z,101139.56
2022-09-23T03:27:42.350Z,101141.34
2022-09-23T03:28:08.036Z,101145.06
2022-09-23T03:28:30.863Z,101144.19
2022-09-23T03:28:53.293Z,101134.72
2022-09-23T03:29:16.827Z,101140.69
2022-09-23T03:29:39.414Z,101137.13
2022-09-23T03:30:02.546Z,101145.16
2022-09-23T03:30:24.719Z,101139.75
2022-09-23T03:30:46.879Z,101140.69
2022-09-23T03:31:08.553Z,101137.13
2022-09-23T03:31:34.153Z,101142.47
2022-09-23T03:31:57.202Z,101119.75
2022-09-23T03:32:21.836Z,101123.28
2022-09-23T03:32:46.980Z,101131.78
2022-09-23T03:33:14.459Z,101127.50
2022-09-23T03:33:41.491Z,101134.47
2022-09-23T03:34:10.077Z,101135.41
2022-09-23T03:34:36.318Z,101135.28
2022-09-23T03:35:01.061Z,101117.69
2022-09-23T03:35:27.336Z,101135.22
2022-09-23T03:36:10.576Z,101140.44
2022-09-23T03:36:51.581Z,101132.47
2022-09-23T03:37:18.794Z,101134.88
2022-09-23T03:37:47.365Z,101130.59
2022-09-23T03:38:15.927Z,101138.47
2022-09-23T03:38:43.078Z,101139.31
2022-09-23T03:39:09.188Z,101132.41
2022-09-23T03:39:35.323Z,101137.56
2022-09-23T03:40:04.074Z,101134.94
2022-09-23T03:40:31.428Z,101137.56
2022-09-23T03:40:58.114Z,101127.22
2022-09-23T03:41:28.341Z,101137.69
2022-09-23T03:41:53.097Z,101135.94
2022-09-23T03:42:20.227Z,101129.69
2022-09-23T03:42:43.839Z,101131.38
2022-09-23T03:43:05.732Z,101143.78
2022-09-23T03:43:27.444Z,101137.69
2022-09-23T03:43:49.628Z,101135.09
2022-09-23T03:44:13.120Z,101134.88
2022-09-23T03:44:39.235Z,101139.31
2022-09-23T03:45:06.610Z,101140.22
2022-09-23T03:45:32.996Z,101140.22
2022-09-23T03:45:57.553Z,101133.13
2022-09-23T03:46:19.431Z,101134.94
2022-09-23T03:46:49.422Z,101135.94
2022-09-23T03:47:14.526Z,101129.00
2022-09-23T03:47:36.199Z,101137.91
2022-09-23T03:47:57.880Z,101136.06
2022-09-23T03:48:21.515Z,101128.13
2022-09-23T03:48:45.210Z,101138.69
2022-09-23T03:49:12.048Z,101134.22
2022-09-23T03:49:37.160Z,101135.09
2022-09-23T03:49:58.740Z,101130.47
2022-09-23T03:50:21.525Z,101131.59
2022-09-23T03:50:43.169Z,101129.59
2022-09-23T03:51:19.484Z,101135.09
2022-09-23T03:51:44.549Z,101124.59
2022-09-23T03:52:07.688Z,101123.50
2022-09-23T03:52:29.454Z,101135.75
2022-09-23T03:52:51.195Z,101125.94
2022-09-23T03:53:13.653Z,101125.13
2022-09-23T03:53:36.188Z,101130.47
2022-09-23T03:53:57.790Z,101124.19
2022-09-23T03:54:20.301Z,101123.25
2022-09-23T03:54:42.165Z,101131.28
2022-09-23T03:55:05.203Z,101121.50
2022-09-23T03:55:27.223Z,101127.72
2022-09-23T03:55:48.827Z,101126.91
2022-09-23T03:56:11.665Z,101124.34
2022-09-23T03:56:34.239Z,101124.25
2022-09-23T03:56:57.628Z,101122.44
2022-09-23T03:57:21.965Z,101126.91
2022-09-23T03:57:45.031Z,101126.13
2022-09-23T03:58:08.620Z,101123.31
2022-09-23T03:58:30.184Z,101130.34
2022-09-23T03:58:51.720Z,101131.28
2022-09-23T03:59:14.840Z,101125.00
2022-09-23T03:59:37.587Z,101129.69
2022-09-23T03:59:59.169Z,101126.84
2022-09-23T04:00:20.745Z,101130.41
2022-09-23T04:00:43.188Z,101127.72
2022-09-23T04:01:06.198Z,101132.16
2022-09-23T04:01:27.944Z,101128.72
2022-09-23T04:01:51.363Z,101126.84
2022-09-23T04:02:16.361Z,101123.47
2022-09-23T04:02:38.163Z,101126.91
2022-09-23T04:02:59.729Z,101126.13
2022-09-23T04:03:22.271Z,101121.66
2022-09-23T04:03:43.851Z,101129.72
2022-09-23T04:04:06.482Z,101120.84
2022-09-23T04:04:28.935Z,101126.03
2022-09-23T04:04:50.501Z,101126.25
2022-09-23T04:05:13.171Z,101119.19
2022-09-23T04:05:36.506Z,101125.38
2022-09-23T04:05:58.084Z,101124.59
2022-09-23T04:06:19.689Z,101128.13
2022-09-23T04:06:41.370Z,101118.31
2022-09-23T04:07:04.570Z,101118.31
2022-09-23T04:07:26.124Z,101129.94
2022-09-23T04:07:48.406Z,101129.00
2022-09-23T04:08:11.621Z,101125.47
2022-09-23T04:08:33.258Z,101122.78
2022-09-23T04:08:54.837Z,101122.84
2022-09-23T04:09:16.865Z,101132.59
2022-09-23T04:09:39.933Z,101124.63
2022-09-23T04:10:01.755Z,101115.75
2022-09-23T04:10:23.353Z,101122.91
2022-09-23T04:10:46.839Z,101122.97
2022-09-23T04:11:08.764Z,101125.50
2022-09-23T04:11:31.309Z,101127.31
2022-09-23T04:11:53.154Z,101124.63
2022-09-23T04:12:16.238Z,101120.38
2022-09-23T04:12:38.217Z,101126.78
2022-09-23T04:13:00.732Z,101113.47
2022-09-23T04:13:22.341Z,101116.97
2022-09-23T04:13:43.916Z,101125.91
2022-09-23T04:14:05.657Z,101120.63
2022-09-23T04:14:28.353Z,101123.38
2022-09-23T04:14:50.033Z,101118.81
2022-09-23T04:15:11.911Z,101127.66
2022-09-23T04:15:33.488Z,101112.06
2022-09-23T04:15:55.443Z,101106.03
2022-09-23T04:16:18.091Z,101120.09
2022-09-23T04:16:39.789Z,101122.09
2022-09-23T04:17:02.841Z,101123.81
2022-09-23T04:17:24.638Z,101118.53
2022-09-23T04:17:47.150Z,101122.03
2022-09-23T04:18:08.727Z,101118.41
2022-09-23T04:18:31.220Z,101116.59
2022-09-23T04:18:52.843Z,101109.69
2022-09-23T04:19:16.169Z,101120.13
2022-09-23T04:19:38.260Z,101115.66
2022-09-23T04:19:59.829Z,101116.50
2022-09-23T04:20:21.394Z,101110.25
2022-09-23T04:20:43.930Z,101106.72
2022-09-23T04:21:05.864Z,101124.31
2022-09-23T04:21:27.653Z,101111.81
2022-09-23T04:21:49.350Z,101116.19
2022-09-23T04:22:12.271Z,101116.28
2022-09-23T04:22:33.952Z,101110.13
2022-09-23T04:22:56.113Z,101120.81
2022-09-23T04:23:17.707Z,101116.34
2022-09-23T04:23:39.340Z,101119.88
2022-09-23T04:24:02.271Z,101111.88
2022-09-23T04:24:23.958Z,101107.44
2022-09-23T04:24:45.572Z,101100.69
2022-09-23T04:25:08.318Z,101123.53
2022-09-23T04:25:31.665Z,101106.78
2022-09-23T04:25:53.538Z,101118.97
2022-09-23T04:26:15.167Z,101115.38
2022-09-23T04:26:37.100Z,101115.22
2022-09-23T04:26:58.765Z,101112.53
2022-09-23T04:27:21.329Z,101112.53
2022-09-23T04:27:42.976Z,101115.28
2022-09-23T04:28:04.535Z,101109.88
2022-09-23T04:28:26.197Z,101113.53
2022-09-23T04:28:47.878Z,101111.72
2022-09-23T04:29:11.941Z,101112.69
2022-09-23T04:29:33.553Z,101109.06
2022-09-23T04:29:55.170Z,101101.03
2022-09-23T04:30:18.629Z,101109.00
2022-09-23T04:30:43.638Z,101112.50
2022-09-23T04:31:06.032Z,101106.31
2022-09-23T04:31:28.897Z,101107.19
2022-09-23T04:31:51.739Z,101109.88
2022-09-23T04:32:15.767Z,101103.66
2022-09-23T04:32:37.813Z,101095.84
2022-09-23T04:32:59.427Z,101106.31
2022-09-23T04:33:21.193Z,101104.53
2022-09-23T04:33:42.875Z,101099.19
2022-09-23T04:34:05.470Z,101094.63
2022-09-23T04:34:27.545Z,101097.44
2022-09-23T04:34:49.103Z,101100.94
2022-09-23T04:35:10.697Z,101099.19
2022-09-23T04:35:37.951Z,101104.53
2022-09-23T04:36:02.137Z,101099.31
2022-09-23T04:36:24.192Z,101093.97
2022-09-23T04:36:47.929Z,101095.78
2022-09-23T04:37:09.553Z,101104.66
2022-09-23T04:37:31.219Z,101103.72
2022-09-23T04:37:52.745Z,101093.97
2022-09-23T04:38:15.257Z,101093.97
2022-09-23T04:38:36.807Z,101095.63
2022-09-23T04:38:58.380Z,101102.78
2022-09-23T04:39:21.764Z,101089.63
2022-09-23T04:39:43.407Z,101095.56
2022-09-23T04:40:06.165Z,101089.41
2022-09-23T04:40:27.789Z,101095.56
2022-09-23T04:40:49.703Z,101090.34
2022-09-23T04:41:12.751Z,101094.81
2022-09-23T04:41:34.427Z,101100.97
2022-09-23T04:41:56.010Z,101095.63
2022-09-23T04:42:17.551Z,101099.38
2022-09-23T04:42:39.121Z,101094.75
2022-09-23T04:43:01.731Z,101095.78
2022-09-23T04:43:23.591Z,101097.50
2022-09-23T04:43:45.854Z,101095.84
2022-09-23T04:44:07.618Z,101075.78
2022-09-23T04:44:30.168Z,101096.69
2022-09-23T04:44:51.734Z,101102.84
2022-09-23T04:45:13.466Z,101094.91
2022-09-23T04:45:35.143Z,101067.91
2022-09-23T04:46:00.477Z,101090.47
2022-09-23T04:46:23.045Z,101098.56
2022-09-23T04:46:48.149Z,101095.00
2022-09-23T04:47:10.003Z,101096.91
2022-09-23T04:47:32.995Z,101092.44
2022-09-23T04:47:58.008Z,101097.78
2022-09-23T04:48:19.782Z,101094.22
2022-09-23T04:48:41.738Z,101085.28
2022-09-23T04:49:04.178Z,101094.09
2022-09-23T04:49:26.855Z,101095.84
2022-09-23T04:49:48.533Z,101092.34
2022-09-23T04:50:10.135Z,101087.00
2022-09-23T04:50:33.828Z,101091.56
2022-09-23T04:51:03.204Z,101083.72
2022-09-23T04:51:27.139Z,101098.50
2022-09-23T04:51:48.742Z,101086.13
2022-09-23T04:52:10.314Z,101090.47
2022-09-23T04:52:32.874Z,101089.56
2022-09-23T04:52:55.115Z,101088.69
2022-09-23T04:53:17.217Z,101096.66